sensor_id;sensor_type;location;lat;lon;timestamp;pressure;altitude;pressure_sealevel;temperature;humidity
7662;BME280;30314;48.184;11.510;2023-05-09T00:01:23;96283.34;;;11.02;100.00
7662;BME280;30314;48.184;11.510;2023-05-09T00:03:49;96269.63;;;11.00;100.00
7662;BME280;30314;48.184;11.510;2023-05-09T00:10:36;96256.00;;;10.82;97.73
7662;BME280;30314;48.184;11.510;2023-05-09T00:13:03;96276.94;;;11.08;99.88
7662;BME280;30314;48.184;11.510;2023-05-09T00:15:29;96239.66;;;10.80;100.00
7662;BME280;30314;48.184;11.510;2023-05-09T00:17:57;96244.06;;;10.90;99.91
7662;BME280;30314;48.184;11.510;2023-05-09T00:20:24;96265.91;;;11.01;98.13
7662;BME280;30314;48.184;11.510;2023-05-09T00:22:50;96251.41;;;10.98;97.68
7662;BME280;30314;48.184;11.510;2023-05-09T00:25:17;96256.44;;;10.95;98.69
7662;BME280;30314;48.184;11.510;2023-05-09T00:27:44;96258.06;;;10.91;98.64
7662;BME280;30314;48.184;11.510;2023-05-09T00:30:10;96264.75;;;10.83;100.00
7662;BME280;30314;48.184;11.510;2023-05-09T00:32:37;96268.47;;;10.77;100.00
7662;BME280;30314;48.184;11.510;2023-05-09T00:35:06;96256.38;;;10.70;100.00
7662;BME280;30314;48.184;11.510;2023-05-09T00:37:33;96263.56;;;10.65;100.00
7662;BME280;30314;48.184;11.510;2023-05-09T00:39:59;96258.03;;;10.61;100.00
7662;BME280;30314;48.184;11.510;2023-05-09T00:42:26;96258.06;;;10.56;100.00
7662;BME280;30314;48.184;11.510;2023-05-09T00:44:52;96261.28;;;10.48;100.00
7662;BME280;30314;48.184;11.510;2023-05-09T00:47:21;96253.81;;;10.20;100.00
7662;BME280;30314;48.184;11.510;2023-05-09T00:49:48;96247.31;;;10.02;100.00
7662;BME280;30314;48.184;11.510;2023-05-09T00:52:15;96261.56;;;9.96;100.00
7662;BME280;30314;48.184;11.510;2023-05-09T00:54:42;96262.94;;;9.88;100.00
7662;BME280;30314;48.184;11.510;2023-05-09T00:57:09;96251.34;;;9.79;100.00
7662;BME280;30314;48.184;11.510;2023-05-09T00:59:36;96245.59;;;9.71;100.00
7662;BME280;30314;48.184;11.510;2023-05-09T01:02:02;96244.56;;;9.67;100.00
7662;BME280;30314;48.184;11.510;2023-05-09T01:04:29;96226.91;;;9.57;100.00
7662;BME280;30314;48.184;11.510;2023-05-09T01:07:13;96241.69;;;9.58;100.00
7662;BME280;30314;48.184;11.510;2023-05-09T01:17:48;96217.81;;;9.13;100.00
7662;BME280;30314;48.184;11.510;2023-05-09T01:20:29;96221.47;;;9.12;100.00
7662;BME280;30314;48.184;11.510;2023-05-09T01:26:06;96224.13;;;9.18;100.00
7662;BME280;30314;48.184;11.510;2023-05-09T01:31:07;96211.25;;;8.95;100.00
7662;BME280;30314;48.184;11.510;2023-05-09T01:33:37;96202.03;;;8.93;100.00
7662;BME280;30314;48.184;11.510;2023-05-09T01:36:08;96222.84;;;8.94;100.00
7662;BME280;30314;48.184;11.510;2023-05-09T01:38:38;96205.22;;;8.79;100.00
7662;BME280;30314;48.184;11.510;2023-05-09T01:41:08;96193.38;;;8.61;100.00
7662;BME280;30314;48.184;11.510;2023-05-09T01:43:37;96220.22;;;8.79;100.00
7662;BME280;30314;48.184;11.510;2023-05-09T01:46:05;96213.91;;;8.69;100.00
7662;BME280;30314;48.184;11.510;2023-05-09T01:48:34;96224.44;;;8.69;100.00
7662;BME280;30314;48.184;11.510;2023-05-09T01:51:02;96204.16;;;8.59;100.00
7662;BME280;30314;48.184;11.510;2023-05-09T01:53:32;96180.72;;;8.37;100.00
7662;BME280;30314;48.184;11.510;2023-05-09T01:56:01;96217.06;;;8.61;100.00
7662;BME280;30314;48.184;11.510;2023-05-09T01:58:31;96213.38;;;8.57;100.00
7662;BME280;30314;48.184;11.510;2023-05-09T02:00:59;96190.50;;;8.47;100.00
7662;BME280;30314;48.184;11.510;2023-05-09T02:03:26;96208.09;;;8.52;100.00
7662;BME280;30314;48.184;11.510;2023-05-09T02:05:54;96193.13;;;8.47;100.00
7662;BME280;30314;48.184;11.510;2023-05-09T02:08:21;96196.00;;;8.45;100.00
7662;BME280;30314;48.184;11.510;2023-05-09T02:10:48;96199.16;;;8.48;100.00
7662;BME280;30314;48.184;11.510;2023-05-09T02:13:15;96168.09;;;8.34;100.00
7662;BME280;30314;48.184;11.510;2023-05-09T02:15:42;96199.72;;;8.55;100.00
7662;BME280;30314;48.184;11.510;2023-05-09T02:18:09;96196.03;;;8.56;100.00
7662;BME280;30314;48.184;11.510;2023-05-09T02:20:36;96189.97;;;8.60;100.00
7662;BME280;30314;48.184;11.510;2023-05-09T02:23:02;96189.16;;;8.60;100.00
7662;BME280;30314;48.184;11.510;2023-05-09T02:25:30;96200.22;;;8.67;100.00
7662;BME280;30314;48.184;11.510;2023-05-09T02:27:58;96187.03;;;8.62;100.00
7662;BME280;30314;48.184;11.510;2023-05-09T02:30:25;96199.69;;;8.60;100.00
7662;BME280;30314;48.184;11.510;2023-05-09T02:32:56;96168.09;;;8.39;100.00
7662;BME280;30314;48.184;11.510;2023-05-09T02:35:25;96182.84;;;8.45;100.00
7662;BME280;30314;48.184;11.510;2023-05-09T02:37:53;96174.97;;;8.40;100.00
7662;BME280;30314;48.184;11.510;2023-05-09T02:40:21;96172.59;;;8.39;100.00
7662;BME280;30314;48.184;11.510;2023-05-09T02:42:48;96137.06;;;8.15;100.00
7662;BME280;30314;48.184;11.510;2023-05-09T02:45:14;96171.78;;;8.38;100.00
7662;BME280;30314;48.184;11.510;2023-05-09T02:47:41;96132.84;;;8.09;100.00
7662;BME280;30314;48.184;11.510;2023-05-09T02:50:08;96155.72;;;8.19;100.00
7662;BME280;30314;48.184;11.510;2023-05-09T02:52:36;96184.69;;;8.35;100.00
7662;BME280;30314;48.184;11.510;2023-05-09T02:55:03;96172.06;;;8.26;100.00
7662;BME280;30314;48.184;11.510;2023-05-09T02:57:33;96167.59;;;8.27;100.00
7662;BME280;30314;48.184;11.510;2023-05-09T03:00:00;96135.19;;;8.06;100.00
7662;BME280;30314;48.184;11.510;2023-05-09T03:02:27;96174.41;;;8.23;100.00
7662;BME280;30314;48.184;11.510;2023-05-09T03:04:54;96172.31;;;8.14;100.00
7662;BME280;30314;48.184;11.510;2023-05-09T03:07:21;96138.06;;;7.83;100.00
7662;BME280;30314;48.184;11.510;2023-05-09T03:09:48;96166.50;;;7.97;100.00
7662;BME280;30314;48.184;11.510;2023-05-09T03:12:14;96169.41;;;8.00;100.00
7662;BME280;30314;48.184;11.510;2023-05-09T03:14:41;96165.19;;;7.99;100.00
7662;BME280;30314;48.184;11.510;2023-05-09T03:17:08;96178.34;;;7.99;100.00
7662;BME280;30314;48.184;11.510;2023-05-09T03:19:35;96144.63;;;7.70;100.00
7662;BME280;30314;48.184;11.510;2023-05-09T03:22:02;96165.94;;;7.79;100.00
7662;BME280;30314;48.184;11.510;2023-05-09T03:24:32;96182.81;;;7.88;100.00
7662;BME280;30314;48.184;11.510;2023-05-09T03:26:59;96178.03;;;7.85;100.00
7662;BME280;30314;48.184;11.510;2023-05-09T03:29:26;96168.06;;;7.87;100.00
7662;BME280;30314;48.184;11.510;2023-05-09T03:31:52;96165.69;;;7.86;100.00
7662;BME280;30314;48.184;11.510;2023-05-09T03:34:19;96150.69;;;7.76;100.00
7662;BME280;30314;48.184;11.510;2023-05-09T03:36:45;96157.00;;;7.80;100.00
7662;BME280;30314;48.184;11.510;2023-05-09T03:39:13;96139.59;;;7.58;100.00
7662;BME280;30314;48.184;11.510;2023-05-09T03:41:43;96169.91;;;7.82;100.00
7662;BME280;30314;48.184;11.510;2023-05-09T03:44:11;96167.53;;;7.80;100.00
7662;BME280;30314;48.184;11.510;2023-05-09T03:46:38;96168.03;;;7.77;100.00
7662;BME280;30314;48.184;11.510;2023-05-09T03:49:04;96159.34;;;7.77;100.00
7662;BME280;30314;48.184;11.510;2023-05-09T03:51:31;96165.38;;;7.72;100.00
7662;BME280;30314;48.184;11.510;2023-05-09T03:54:00;96154.06;;;7.66;100.00
7662;BME280;30314;48.184;11.510;2023-05-09T03:56:27;96156.16;;;7.64;100.00
7662;BME280;30314;48.184;11.510;2023-05-09T03:58:53;96156.44;;;7.63;100.00
7662;BME280;30314;48.184;11.510;2023-05-09T04:01:20;96153.78;;;7.57;100.00
7662;BME280;30314;48.184;11.510;2023-05-09T04:03:47;96154.59;;;7.58;100.00
7662;BME280;30314;48.184;11.510;2023-05-09T04:06:14;96166.97;;;7.63;100.00
7662;BME280;30314;48.184;11.510;2023-05-09T04:08:43;96157.47;;;7.56;100.00
7662;BME280;30314;48.184;11.510;2023-05-09T04:11:09;96162.47;;;7.63;100.00
7662;BME280;30314;48.184;11.510;2023-05-09T04:13:38;96143.53;;;7.56;100.00
7662;BME280;30314;48.184;11.510;2023-05-09T04:16:18;96166.97;;;7.68;100.00
7662;BME280;30314;48.184;11.510;2023-05-09T04:18:45;96173.28;;;7.67;100.00
7662;BME280;30314;48.184;11.510;2023-05-09T04:21:12;96170.66;;;7.72;100.00
7662;BME280;30314;48.184;11.510;2023-05-09T04:23:40;96168.00;;;7.72;100.00
7662;BME280;30314;48.184;11.510;2023-05-09T04:26:10;96174.91;;;7.88;100.00
7662;BME280;30314;48.184;11.510;2023-05-09T04:28:38;96158.31;;;7.78;100.00
7662;BME280;30314;48.184;11.510;2023-05-09T04:31:05;96166.75;;;7.90;100.00
7662;BME280;30314;48.184;11.510;2023-05-09T04:33:33;96163.34;;;8.05;100.00
7662;BME280;30314;48.184;11.510;2023-05-09T04:36:03;96171.81;;;8.28;100.00
7662;BME280;30314;48.184;11.510;2023-05-09T04:38:30;96148.09;;;8.33;100.00
7662;BME280;30314;48.184;11.510;2023-05-09T04:40:57;96152.59;;;8.48;100.00
7662;BME280;30314;48.184;11.510;2023-05-09T04:43:24;96164.66;;;8.70;100.00
7662;BME280;30314;48.184;11.510;2023-05-09T04:45:53;96157.78;;;8.84;100.00
7662;BME280;30314;48.184;11.510;2023-05-09T04:48:19;96153.03;;;9.02;100.00
7662;BME280;30314;48.184;11.510;2023-05-09T04:50:48;96137.72;;;9.04;100.00
7662;BME280;30314;48.184;11.510;2023-05-09T04:53:14;96150.06;;;9.19;100.00
7662;BME280;30314;48.184;11.510;2023-05-09T04:55:42;96159.78;;;9.34;100.00
7662;BME280;30314;48.184;11.510;2023-05-09T04:58:10;96153.97;;;9.37;100.00
7662;BME280;30314;48.184;11.510;2023-05-09T05:00:37;96152.66;;;9.40;100.00
7662;BME280;30314;48.184;11.510;2023-05-09T05:03:05;96166.34;;;9.42;100.00
7662;BME280;30314;48.184;11.510;2023-05-09T05:05:32;96151.63;;;9.36;100.00
7662;BME280;30314;48.184;11.510;2023-05-09T05:08:02;96153.19;;;9.37;100.00
7662;BME280;30314;48.184;11.510;2023-05-09T05:10:33;96145.28;;;9.37;100.00
7662;BME280;30314;48.184;11.510;2023-05-09T05:13:05;96153.69;;;9.44;100.00
7662;BME280;30314;48.184;11.510;2023-05-09T05:15:33;96151.28;;;9.53;100.00
7662;BME280;30314;48.184;11.510;2023-05-09T05:18:01;96157.28;;;9.64;100.00
7662;BME280;30314;48.184;11.510;2023-05-09T05:20:31;96152.28;;;9.62;100.00
7662;BME280;30314;48.184;11.510;2023-05-09T05:22:59;96156.72;;;9.72;100.00
7662;BME280;30314;48.184;11.510;2023-05-09T05:25:26;96139.09;;;9.67;100.00
7662;BME280;30314;48.184;11.510;2023-05-09T05:27:54;96152.94;;;9.83;100.00
7662;BME280;30314;48.184;11.510;2023-05-09T05:30:20;96148.44;;;9.89;100.00
7662;BME280;30314;48.184;11.510;2023-05-09T05:32:47;96129.47;;;9.87;100.00
7662;BME280;30314;48.184;11.510;2023-05-09T05:35:17;96148.31;;;10.05;100.00
7662;BME280;30314;48.184;11.510;2023-05-09T05:37:44;96146.97;;;10.12;100.00
7662;BME280;30314;48.184;11.510;2023-05-09T05:40:14;96139.56;;;10.14;100.00
7662;BME280;30314;48.184;11.510;2023-05-09T05:42:43;96146.88;;;10.23;100.00
7662;BME280;30314;48.184;11.510;2023-05-09T05:45:11;96147.38;;;10.30;100.00
7662;BME280;30314;48.184;11.510;2023-05-09T05:47:42;96145.66;;;10.45;100.00
7662;BME280;30314;48.184;11.510;2023-05-09T05:50:10;96159.81;;;10.59;100.00
7662;BME280;30314;48.184;11.510;2023-05-09T05:52:38;96137.66;;;10.55;100.00
7662;BME280;30314;48.184;11.510;2023-05-09T05:55:06;96157.50;;;10.82;100.00
7662;BME280;30314;48.184;11.510;2023-05-09T05:57:33;96144.53;;;10.80;100.00
7662;BME280;30314;48.184;11.510;2023-05-09T06:00:00;96132.16;;;10.76;100.00
7662;BME280;30314;48.184;11.510;2023-05-09T06:02:27;96129.44;;;10.86;100.00
7662;BME280;30314;48.184;11.510;2023-05-09T06:04:53;96122.97;;;10.97;100.00
7662;BME280;30314;48.184;11.510;2023-05-09T06:07:22;96128.03;;;11.18;100.00
7662;BME280;30314;48.184;11.510;2023-05-09T06:09:50;96105.91;;;11.14;100.00
7662;BME280;30314;48.184;11.510;2023-05-09T06:12:17;96114.66;;;11.34;100.00
7662;BME280;30314;48.184;11.510;2023-05-09T06:14:43;96106.94;;;11.37;100.00
7662;BME280;30314;48.184;11.510;2023-05-09T06:17:11;96098.00;;;11.52;98.40
7662;BME280;30314;48.184;11.510;2023-05-09T06:19:38;96107.81;;;11.71;97.63
7662;BME280;30314;48.184;11.510;2023-05-09T06:22:04;96106.81;;;11.86;95.94
7662;BME280;30314;48.184;11.510;2023-05-09T06:24:31;96098.66;;;11.82;98.52
7662;BME280;30314;48.184;11.510;2023-05-09T06:27:02;96114.25;;;12.03;100.00
7662;BME280;30314;48.184;11.510;2023-05-09T06:29:29;96105.28;;;12.18;96.87
7662;BME280;30314;48.184;11.510;2023-05-09T06:31:56;96113.25;;;12.32;94.20
7662;BME280;30314;48.184;11.510;2023-05-09T06:34:22;96104.09;;;12.24;97.33
7662;BME280;30314;48.184;11.510;2023-05-09T06:36:49;96110.50;;;12.37;99.03
7662;BME280;30314;48.184;11.510;2023-05-09T06:39:16;96112.38;;;12.37;97.16
7662;BME280;30314;48.184;11.510;2023-05-09T06:41:43;96102.19;;;12.44;95.92
7662;BME280;30314;48.184;11.510;2023-05-09T06:44:10;96057.63;;;12.32;97.37
7662;BME280;30314;48.184;11.510;2023-05-09T06:46:36;96081.25;;;12.62;99.63
7662;BME280;30314;48.184;11.510;2023-05-09T06:49:03;96089.22;;;12.76;99.77
7662;BME280;30314;48.184;11.510;2023-05-09T06:51:31;96090.13;;;12.99;96.75
7662;BME280;30314;48.184;11.510;2023-05-09T06:53:57;96093.53;;;13.00;97.22
7662;BME280;30314;48.184;11.510;2023-05-09T06:56:24;96082.75;;;12.96;97.06
7662;BME280;30314;48.184;11.510;2023-05-09T06:58:52;96072.53;;;13.03;98.27
7662;BME280;30314;48.184;11.510;2023-05-09T07:01:19;96091.06;;;13.17;92.87
7662;BME280;30314;48.184;11.510;2023-05-09T07:03:45;96093.44;;;13.19;91.22
7662;BME280;30314;48.184;11.510;2023-05-09T07:06:12;96084.22;;;13.02;94.28
7662;BME280;30314;48.184;11.510;2023-05-09T07:08:39;96091.88;;;13.04;97.63
7662;BME280;30314;48.184;11.510;2023-05-09T07:11:06;96084.22;;;13.02;99.14
7662;BME280;30314;48.184;11.510;2023-05-09T07:13:32;96092.38;;;13.06;96.00
7662;BME280;30314;48.184;11.510;2023-05-09T07:15:58;96071.75;;;13.03;99.45
7662;BME280;30314;48.184;11.510;2023-05-09T07:18:25;96077.44;;;13.10;98.33
7662;BME280;30314;48.184;11.510;2023-05-09T07:20:52;96073.50;;;13.07;97.97
7662;BME280;30314;48.184;11.510;2023-05-09T07:23:18;96075.75;;;13.28;98.48
7662;BME280;30314;48.184;11.510;2023-05-09T07:25:45;96067.78;;;13.28;95.60
7662;BME280;30314;48.184;11.510;2023-05-09T07:28:11;96045.13;;;13.08;96.13
7662;BME280;30314;48.184;11.510;2023-05-09T07:30:38;96071.00;;;13.39;96.66
7662;BME280;30314;48.184;11.510;2023-05-09T07:33:04;96037.47;;;13.20;95.48
7662;BME280;30314;48.184;11.510;2023-05-09T07:35:32;96074.53;;;13.48;97.81
7662;BME280;30314;48.184;11.510;2023-05-09T07:37:58;96058.50;;;13.53;93.81
7662;BME280;30314;48.184;11.510;2023-05-09T07:40:25;96053.97;;;13.54;95.05
7662;BME280;30314;48.184;11.510;2023-05-09T07:42:51;96058.75;;;13.66;93.79
7662;BME280;30314;48.184;11.510;2023-05-09T07:45:20;96060.75;;;13.83;94.79
7662;BME280;30314;48.184;11.510;2023-05-09T07:47:49;96045.84;;;13.96;94.22
7662;BME280;30314;48.184;11.510;2023-05-09T07:50:16;96050.56;;;14.22;100.00
7662;BME280;30314;48.184;11.510;2023-05-09T07:52:42;96048.25;;;14.61;97.42
7662;BME280;30314;48.184;11.510;2023-05-09T07:55:09;96045.03;;;14.82;95.74
7662;BME280;30314;48.184;11.510;2023-05-09T07:57:37;96049.34;;;15.00;95.19
7662;BME280;30314;48.184;11.510;2023-05-09T08:00:06;96039.63;;;15.13;93.37
7662;BME280;30314;48.184;11.510;2023-05-09T08:02:38;96027.06;;;14.87;86.76
7662;BME280;30314;48.184;11.510;2023-05-09T08:05:05;96031.28;;;14.79;91.50
7662;BME280;30314;48.184;11.510;2023-05-09T08:07:33;96032.53;;;14.82;94.58
7662;BME280;30314;48.184;11.510;2023-05-09T08:10:00;96021.19;;;15.34;84.65
7662;BME280;30314;48.184;11.510;2023-05-09T08:12:26;96031.53;;;15.27;83.01
7662;BME280;30314;48.184;11.510;2023-05-09T08:14:53;96022.00;;;15.35;87.56
7662;BME280;30314;48.184;11.510;2023-05-09T08:17:19;96024.06;;;15.56;87.64
7662;BME280;30314;48.184;11.510;2023-05-09T08:19:46;96017.78;;;15.52;89.96
7662;BME280;30314;48.184;11.510;2023-05-09T08:22:16;96011.69;;;15.69;86.22
7662;BME280;30314;48.184;11.510;2023-05-09T08:24:44;96001.97;;;15.73;86.98
7662;BME280;30314;48.184;11.510;2023-05-09T08:27:12;96006.31;;;15.95;87.52
7662;BME280;30314;48.184;11.510;2023-05-09T08:29:39;96008.63;;;16.14;82.65
7662;BME280;30314;48.184;11.510;2023-05-09T08:32:06;96008.00;;;16.09;79.67
7662;BME280;30314;48.184;11.510;2023-05-09T08:34:33;96010.75;;;15.73;83.89
7662;BME280;30314;48.184;11.510;2023-05-09T08:37:01;95998.06;;;15.53;87.08
7662;BME280;30314;48.184;11.510;2023-05-09T08:39:27;95993.06;;;15.42;87.35
7662;BME280;30314;48.184;11.510;2023-05-09T08:41:57;95997.75;;;15.36;89.89
7662;BME280;30314;48.184;11.510;2023-05-09T08:44:24;95974.41;;;15.25;89.79
7662;BME280;30314;48.184;11.510;2023-05-09T08:46:54;95988.94;;;15.10;92.72
7662;BME280;30314;48.184;11.510;2023-05-09T08:49:22;95976.88;;;14.94;93.99
7662;BME280;30314;48.184;11.510;2023-05-09T08:51:49;95985.19;;;15.02;96.79
7662;BME280;30314;48.184;11.510;2023-05-09T08:54:17;95974.09;;;15.17;91.85
7662;BME280;30314;48.184;11.510;2023-05-09T08:56:46;95977.69;;;15.13;93.57
7662;BME280;30314;48.184;11.510;2023-05-09T08:59:13;95965.16;;;15.13;94.72
7662;BME280;30314;48.184;11.510;2023-05-09T09:01:42;95967.84;;;15.31;94.39
7662;BME280;30314;48.184;11.510;2023-05-09T09:04:09;95957.50;;;15.20;93.93
7662;BME280;30314;48.184;11.510;2023-05-09T09:06:38;95934.97;;;15.18;92.21
7662;BME280;30314;48.184;11.510;2023-05-09T09:09:06;95953.44;;;15.23;93.31
7662;BME280;30314;48.184;11.510;2023-05-09T09:11:35;95948.13;;;15.32;91.45
7662;BME280;30314;48.184;11.510;2023-05-09T09:14:10;95948.59;;;15.60;93.13
7662;BME280;30314;48.184;11.510;2023-05-09T09:16:40;95950.78;;;15.58;93.71
7662;BME280;30314;48.184;11.510;2023-05-09T09:19:11;95947.34;;;15.49;92.26
7662;BME280;30314;48.184;11.510;2023-05-09T09:21:40;95946.72;;;15.61;86.14
7662;BME280;30314;48.184;11.510;2023-05-09T09:24:11;95942.34;;;15.47;89.58
7662;BME280;30314;48.184;11.510;2023-05-09T09:26:45;95943.44;;;15.46;91.28
7662;BME280;30314;48.184;11.510;2023-05-09T09:29:12;95938.44;;;15.45;91.25
7662;BME280;30314;48.184;11.510;2023-05-09T09:31:43;95933.09;;;15.54;88.04
7662;BME280;30314;48.184;11.510;2023-05-09T09:34:12;95928.72;;;15.58;86.29
7662;BME280;30314;48.184;11.510;2023-05-09T09:36:39;95911.81;;;15.54;89.89
7662;BME280;30314;48.184;11.510;2023-05-09T09:39:06;95893.00;;;15.68;85.18
7662;BME280;30314;48.184;11.510;2023-05-09T09:41:36;95911.19;;;16.04;80.03
7662;BME280;30314;48.184;11.510;2023-05-09T09:44:14;95914.19;;;15.94;82.55
7662;BME280;30314;48.184;11.510;2023-05-09T09:46:51;95902.97;;;15.80;85.01
7662;BME280;30314;48.184;11.510;2023-05-09T09:49:23;95900.28;;;15.88;84.27
7662;BME280;30314;48.184;11.510;2023-05-09T09:51:51;95908.75;;;15.90;84.25
7662;BME280;30314;48.184;11.510;2023-05-09T09:54:18;95895.41;;;15.99;79.32
7662;BME280;30314;48.184;11.510;2023-05-09T09:56:50;95890.38;;;15.98;80.82
7662;BME280;30314;48.184;11.510;2023-05-09T09:59:24;95860.44;;;16.10;78.92
7662;BME280;30314;48.184;11.510;2023-05-09T10:02:02;95879.84;;;16.10;80.68
7662;BME280;30314;48.184;11.510;2023-05-09T10:04:37;95877.97;;;16.11;82.62
7662;BME280;30314;48.184;11.510;2023-05-09T10:07:06;95880.53;;;16.28;87.04
7662;BME280;30314;48.184;11.510;2023-05-09T10:09:34;95873.28;;;16.38;82.01
7662;BME280;30314;48.184;11.510;2023-05-09T10:12:05;95880.44;;;16.46;82.87
7662;BME280;30314;48.184;11.510;2023-05-09T10:14:33;95864.38;;;16.64;81.33
7662;BME280;30314;48.184;11.510;2023-05-09T10:17:02;95853.44;;;16.78;82.88
7662;BME280;30314;48.184;11.510;2023-05-09T10:19:31;95850.47;;;16.79;79.99
7662;BME280;30314;48.184;11.510;2023-05-09T10:22:02;95853.28;;;16.95;83.70
7662;BME280;30314;48.184;11.510;2023-05-09T10:24:47;95845.09;;;17.00;78.76
7662;BME280;30314;48.184;11.510;2023-05-09T10:27:21;95845.19;;;17.25;80.60
7662;BME280;30314;48.184;11.510;2023-05-09T10:29:53;95842.03;;;17.44;78.68
7662;BME280;30314;48.184;11.510;2023-05-09T10:32:26;95832.91;;;17.45;82.56
7662;BME280;30314;48.184;11.510;2023-05-09T10:35:04;95829.72;;;17.65;79.02
7662;BME280;30314;48.184;11.510;2023-05-09T10:37:32;95830.06;;;17.75;72.32
7662;BME280;30314;48.184;11.510;2023-05-09T10:40:02;95825.50;;;17.88;72.77
7662;BME280;30314;48.184;11.510;2023-05-09T10:42:30;95822.06;;;18.13;74.26
7662;BME280;30314;48.184;11.510;2023-05-09T10:44:57;95826.50;;;18.34;72.79
7662;BME280;30314;48.184;11.510;2023-05-09T10:47:27;95804.00;;;18.35;72.58
7662;BME280;30314;48.184;11.510;2023-05-09T10:49:55;95797.31;;;18.41;71.54
7662;BME280;30314;48.184;11.510;2023-05-09T10:52:22;95805.53;;;18.48;73.60
7662;BME280;30314;48.184;11.510;2023-05-09T10:55:03;95798.13;;;18.70;74.11
7662;BME280;30314;48.184;11.510;2023-05-09T10:57:31;95793.13;;;18.68;71.59
7662;BME280;30314;48.184;11.510;2023-05-09T10:59:58;95794.09;;;19.05;68.37
7662;BME280;30314;48.184;11.510;2023-05-09T11:02:25;95790.66;;;19.04;66.18
7662;BME280;30314;48.184;11.510;2023-05-09T11:05:16;95783.50;;;19.08;70.01
7662;BME280;30314;48.184;11.510;2023-05-09T11:07:43;95771.88;;;19.17;69.92
7662;BME280;30314;48.184;11.510;2023-05-09T11:10:14;95765.88;;;19.07;71.54
7662;BME280;30314;48.184;11.510;2023-05-09T11:12:58;95763.25;;;19.23;69.69
7662;BME280;30314;48.184;11.510;2023-05-09T11:15:25;95759.59;;;19.32;72.29
7662;BME280;30314;48.184;11.510;2023-05-09T11:18:06;95749.94;;;19.43;66.07
7662;BME280;30314;48.184;11.510;2023-05-09T11:20:34;95742.41;;;19.49;68.49
7662;BME280;30314;48.184;11.510;2023-05-09T11:23:05;95739.31;;;19.47;67.17
7662;BME280;30314;48.184;11.510;2023-05-09T11:25:32;95724.63;;;19.40;68.17
7662;BME280;30314;48.184;11.510;2023-05-09T11:28:01;95726.34;;;19.49;69.69
7662;BME280;30314;48.184;11.510;2023-05-09T11:30:38;95732.03;;;19.63;68.42
7662;BME280;30314;48.184;11.510;2023-05-09T11:33:23;95733.25;;;19.50;65.01
7662;BME280;30314;48.184;11.510;2023-05-09T11:36:28;95721.25;;;19.60;63.91
7662;BME280;30314;48.184;11.510;2023-05-09T11:39:04;95719.16;;;19.53;65.96
7662;BME280;30314;48.184;11.510;2023-05-09T11:41:38;95715.47;;;19.57;65.39
7662;BME280;30314;48.184;11.510;2023-05-09T11:44:19;95704.91;;;19.65;68.06
7662;BME280;30314;48.184;11.510;2023-05-09T11:46:47;95711.13;;;19.69;65.12
7662;BME280;30314;48.184;11.510;2023-05-09T11:49:14;95704.84;;;19.61;63.10
7662;BME280;30314;48.184;11.510;2023-05-09T11:51:41;95704.56;;;19.66;60.40
7662;BME280;30314;48.184;11.510;2023-05-09T11:54:08;95708.22;;;19.58;62.73
7662;BME280;30314;48.184;11.510;2023-05-09T11:56:38;95693.78;;;19.47;61.73
7662;BME280;30314;48.184;11.510;2023-05-09T11:59:07;95696.22;;;19.20;68.26
7662;BME280;30314;48.184;11.510;2023-05-09T12:01:34;95678.44;;;19.11;67.72
7662;BME280;30314;48.184;11.510;2023-05-09T12:04:01;95688.97;;;19.20;68.24
7662;BME280;30314;48.184;11.510;2023-05-09T12:06:28;95677.13;;;19.21;68.15
7662;BME280;30314;48.184;11.510;2023-05-09T12:08:55;95674.63;;;19.28;67.16
7662;BME280;30314;48.184;11.510;2023-05-09T12:11:24;95661.09;;;19.05;67.72
7662;BME280;30314;48.184;11.510;2023-05-09T12:13:51;95673.34;;;19.22;66.16
7662;BME280;30314;48.184;11.510;2023-05-09T12:16:19;95669.19;;;19.25;65.39
7662;BME280;30314;48.184;11.510;2023-05-09T12:18:48;95663.69;;;19.18;65.25
7662;BME280;30314;48.184;11.510;2023-05-09T12:21:19;95651.25;;;19.09;65.61
7662;BME280;30314;48.184;11.510;2023-05-09T12:23:48;95655.47;;;19.10;64.83
7662;BME280;30314;48.184;11.510;2023-05-09T12:26:18;95651.69;;;18.95;66.43
7662;BME280;30314;48.184;11.510;2023-05-09T12:28:47;95653.22;;;18.96;67.64
7662;BME280;30314;48.184;11.510;2023-05-09T12:31:15;95634.41;;;18.93;67.09
7662;BME280;30314;48.184;11.510;2023-05-09T12:33:42;95638.88;;;19.05;67.81
7662;BME280;30314;48.184;11.510;2023-05-09T12:36:09;95627.41;;;19.04;66.32
7662;BME280;30314;48.184;11.510;2023-05-09T12:38:37;95636.22;;;19.21;64.45
7662;BME280;30314;48.184;11.510;2023-05-09T12:41:08;95623.25;;;19.23;61.75
7662;BME280;30314;48.184;11.510;2023-05-09T12:43:55;95626.03;;;19.10;62.47
7662;BME280;30314;48.184;11.510;2023-05-09T12:46:22;95613.69;;;19.06;63.83
7662;BME280;30314;48.184;11.510;2023-05-09T12:48:49;95602.22;;;19.05;63.92
7662;BME280;30314;48.184;11.510;2023-05-09T12:51:18;95608.25;;;19.02;65.25
7662;BME280;30314;48.184;11.510;2023-05-09T12:53:45;95605.03;;;19.12;62.94
7662;BME280;30314;48.184;11.510;2023-05-09T12:56:14;95603.06;;;19.09;62.34
7662;BME280;30314;48.184;11.510;2023-05-09T12:58:53;95595.81;;;19.10;65.45
7662;BME280;30314;48.184;11.510;2023-05-09T13:01:22;95592.22;;;19.02;66.00
7662;BME280;30314;48.184;11.510;2023-05-09T13:04:00;95583.66;;;18.96;66.97
7662;BME280;30314;48.184;11.510;2023-05-09T13:06:28;95590.53;;;19.13;67.17
7662;BME280;30314;48.184;11.510;2023-05-09T13:08:58;95590.91;;;19.12;64.42
7662;BME280;30314;48.184;11.510;2023-05-09T13:11:27;95576.38;;;19.13;61.41
7662;BME280;30314;48.184;11.510;2023-05-09T13:13:54;95573.31;;;19.30;60.93
7662;BME280;30314;48.184;11.510;2023-05-09T13:16:20;95566.53;;;19.17;65.16
7662;BME280;30314;48.184;11.510;2023-05-09T13:18:48;95576.53;;;19.20;66.97
7662;BME280;30314;48.184;11.510;2023-05-09T13:21:14;95569.09;;;19.29;67.53
7662;BME280;30314;48.184;11.510;2023-05-09T13:23:41;95553.81;;;19.30;66.46
7662;BME280;30314;48.184;11.510;2023-05-09T13:26:09;95553.53;;;19.35;67.47